sensor_id;sensor_type;location;lat;lon;timestamp;P1;durP1;ratioP1;P2;durP2;ratioP2
8050;SDS011;4068;42.158;24.732;2023-03-17T00:01:34;8.70;;;6.03;;
8050;SDS011;4068;42.158;24.732;2023-03-17T00:04:00;7.00;;;5.30;;
8050;SDS011;4068;42.158;24.732;2023-03-17T00:06:27;5.97;;;5.23;;
8050;SDS011;4068;42.158;24.732;2023-03-17T00:08:53;7.47;;;5.10;;
8050;SDS011;4068;42.158;24.732;2023-03-17T00:11:20;6.93;;;5.60;;
8050;SDS011;4068;42.158;24.732;2023-03-17T00:13:45;8.03;;;5.60;;
8050;SDS011;4068;42.158;24.732;2023-03-17T00:16:12;6.40;;;5.37;;
8050;SDS011;4068;42.158;24.732;2023-03-17T00:18:42;7.10;;;5.50;;
8050;SDS011;4068;42.158;24.732;2023-03-17T00:21:12;7.53;;;5.57;;
8050;SDS011;4068;42.158;24.732;2023-03-17T00:23:39;6.33;;;5.73;;
8050;SDS011;4068;42.158;24.732;2023-03-17T00:26:05;7.67;;;5.80;;
8050;SDS011;4068;42.158;24.732;2023-03-17T00:28:31;6.67;;;5.47;;
8050;SDS011;4068;42.158;24.732;2023-03-17T00:30:58;6.83;;;5.50;;
8050;SDS011;4068;42.158;24.732;2023-03-17T00:33:26;8.40;;;5.20;;
8050;SDS011;4068;42.158;24.732;2023-03-17T00:35:53;7.90;;;5.37;;
8050;SDS011;4068;42.158;24.732;2023-03-17T00:38:20;7.97;;;5.03;;
8050;SDS011;4068;42.158;24.732;2023-03-17T00:40:46;6.03;;;5.43;;
8050;SDS011;4068;42.158;24.732;2023-03-17T00:43:12;7.17;;;5.73;;
8050;SDS011;4068;42.158;24.732;2023-03-17T00:45:41;6.43;;;5.33;;
8050;SDS011;4068;42.158;24.732;2023-03-17T00:48:17;6.47;;;5.70;;
8050;SDS011;4068;42.158;24.732;2023-03-17T00:50:45;5.23;;;4.73;;
8050;SDS011;4068;42.158;24.732;2023-03-17T00:53:13;6.33;;;5.00;;
8050;SDS011;4068;42.158;24.732;2023-03-17T00:55:41;7.63;;;5.20;;
8050;SDS011;4068;42.158;24.732;2023-03-17T00:58:12;5.73;;;4.87;;
8050;SDS011;4068;42.158;24.732;2023-03-17T01:00:47;6.73;;;5.27;;
8050;SDS011;4068;42.158;24.732;2023-03-17T01:03:13;6.80;;;5.70;;
8050;SDS011;4068;42.158;24.732;2023-03-17T01:05:39;6.13;;;5.30;;
8050;SDS011;4068;42.158;24.732;2023-03-17T01:08:05;6.13;;;5.03;;
8050;SDS011;4068;42.158;24.732;2023-03-17T01:10:31;6.87;;;5.17;;
8050;SDS011;4068;42.158;24.732;2023-03-17T01:12:57;6.70;;;5.30;;
8050;SDS011;4068;42.158;24.732;2023-03-17T01:15:24;5.83;;;4.90;;
8050;SDS011;4068;42.158;24.732;2023-03-17T01:17:52;5.23;;;4.60;;
8050;SDS011;4068;42.158;24.732;2023-03-17T01:20:23;5.33;;;4.83;;
8050;SDS011;4068;42.158;24.732;2023-03-17T01:22:51;5.93;;;4.90;;
8050;SDS011;4068;42.158;24.732;2023-03-17T01:25:17;6.13;;;4.80;;
8050;SDS011;4068;42.158;24.732;2023-03-17T01:27:43;8.67;;;4.97;;
8050;SDS011;4068;42.158;24.732;2023-03-17T01:30:55;6.00;;;4.80;;
8050;SDS011;4068;42.158;24.732;2023-03-17T01:33:04;5.67;;;4.93;;
8050;SDS011;4068;42.158;24.732;2023-03-17T01:35:31;5.90;;;5.03;;
8050;SDS011;4068;42.158;24.732;2023-03-17T01:37:57;7.20;;;4.63;;
8050;SDS011;4068;42.158;24.732;2023-03-17T01:40:25;5.90;;;4.90;;
8050;SDS011;4068;42.158;24.732;2023-03-17T01:48:35;4.97;;;4.40;;
8050;SDS011;4068;42.158;24.732;2023-03-17T01:51:05;5.33;;;4.50;;
8050;SDS011;4068;42.158;24.732;2023-03-17T01:53:33;5.23;;;4.63;;
8050;SDS011;4068;42.158;24.732;2023-03-17T01:56:01;4.70;;;4.23;;
8050;SDS011;4068;42.158;24.732;2023-03-17T01:58:27;5.00;;;4.50;;
8050;SDS011;4068;42.158;24.732;2023-03-17T02:00:53;5.80;;;4.67;;
8050;SDS011;4068;42.158;24.732;2023-03-17T02:03:19;7.50;;;4.67;;
8050;SDS011;4068;42.158;24.732;2023-03-17T02:05:46;4.90;;;4.37;;
8050;SDS011;4068;42.158;24.732;2023-03-17T02:08:15;5.07;;;4.57;;
8050;SDS011;4068;42.158;24.732;2023-03-17T02:10:41;5.00;;;4.50;;
8050;SDS011;4068;42.158;24.732;2023-03-17T02:13:09;5.43;;;4.73;;
8050;SDS011;4068;42.158;24.732;2023-03-17T02:18:02;4.80;;;4.30;;
8050;SDS011;4068;42.158;24.732;2023-03-17T02:22:54;5.53;;;4.47;;
8050;SDS011;4068;42.158;24.732;2023-03-17T02:25:21;4.20;;;3.80;;
8050;SDS011;4068;42.158;24.732;2023-03-17T02:27:50;4.07;;;3.70;;
8050;SDS011;4068;42.158;24.732;2023-03-17T02:30:19;5.20;;;3.83;;
8050;SDS011;4068;42.158;24.732;2023-03-17T02:32:46;4.23;;;3.83;;
8050;SDS011;4068;42.158;24.732;2023-03-17T02:35:12;4.10;;;3.80;;
8050;SDS011;4068;42.158;24.732;2023-03-17T02:37:38;4.73;;;4.23;;
8050;SDS011;4068;42.158;24.732;2023-03-17T02:40:05;4.37;;;4.00;;
8050;SDS011;4068;42.158;24.732;2023-03-17T02:42:33;4.03;;;3.70;;
8050;SDS011;4068;42.158;24.732;2023-03-17T02:44:59;5.50;;;3.93;;
8050;SDS011;4068;42.158;24.732;2023-03-17T02:47:25;4.07;;;3.70;;
8050;SDS011;4068;42.158;24.732;2023-03-17T02:49:51;3.73;;;3.43;;
8050;SDS011;4068;42.158;24.732;2023-03-17T02:52:17;4.20;;;3.80;;
8050;SDS011;4068;42.158;24.732;2023-03-17T02:54:43;5.17;;;3.80;;
8050;SDS011;4068;42.158;24.732;2023-03-17T02:57:08;4.80;;;4.03;;
8050;SDS011;4068;42.158;24.732;2023-03-17T02:59:35;7.27;;;4.00;;
8050;SDS011;4068;42.158;24.732;2023-03-17T03:02:00;4.40;;;4.00;;
8050;SDS011;4068;42.158;24.732;2023-03-17T03:04:26;12.13;;;5.10;;
8050;SDS011;4068;42.158;24.732;2023-03-17T03:06:51;4.00;;;3.60;;
8050;SDS011;4068;42.158;24.732;2023-03-17T03:09:18;3.87;;;3.57;;
8050;SDS011;4068;42.158;24.732;2023-03-17T03:11:44;6.57;;;4.07;;
8050;SDS011;4068;42.158;24.732;2023-03-17T03:14:10;3.87;;;3.50;;
8050;SDS011;4068;42.158;24.732;2023-03-17T03:16:36;3.70;;;3.40;;
8050;SDS011;4068;42.158;24.732;2023-03-17T03:19:02;3.50;;;3.20;;
8050;SDS011;4068;42.158;24.732;2023-03-17T03:21:27;3.70;;;3.40;;
8050;SDS011;4068;42.158;24.732;2023-03-17T03:23:53;3.70;;;3.40;;
8050;SDS011;4068;42.158;24.732;2023-03-17T03:26:19;8.03;;;5.63;;
8050;SDS011;4068;42.158;24.732;2023-03-17T03:28:44;3.80;;;3.40;;
8050;SDS011;4068;42.158;24.732;2023-03-17T03:31:10;3.80;;;3.50;;
8050;SDS011;4068;42.158;24.732;2023-03-17T03:33:36;4.00;;;3.70;;
8050;SDS011;4068;42.158;24.732;2023-03-17T03:36:01;4.63;;;4.10;;
8050;SDS011;4068;42.158;24.732;2023-03-17T03:38:27;8.47;;;3.37;;
8050;SDS011;4068;42.158;24.732;2023-03-17T03:40:52;3.60;;;3.30;;
8050;SDS011;4068;42.158;24.732;2023-03-17T03:43:18;4.40;;;3.63;;
8050;SDS011;4068;42.158;24.732;2023-03-17T03:45:44;5.60;;;3.40;;
8050;SDS011;4068;42.158;24.732;2023-03-17T03:48:10;4.57;;;3.40;;
8050;SDS011;4068;42.158;24.732;2023-03-17T03:50:36;4.60;;;3.70;;
8050;SDS011;4068;42.158;24.732;2023-03-17T03:53:02;3.80;;;3.50;;
8050;SDS011;4068;42.158;24.732;2023-03-17T03:55:27;5.67;;;3.73;;
8050;SDS011;4068;42.158;24.732;2023-03-17T03:57:53;4.20;;;3.80;;
8050;SDS011;4068;42.158;24.732;2023-03-17T04:00:18;3.93;;;3.63;;
8050;SDS011;4068;42.158;24.732;2023-03-17T04:02:44;7.60;;;3.80;;
8050;SDS011;4068;42.158;24.732;2023-03-17T04:05:11;6.80;;;3.53;;
8050;SDS011;4068;42.158;24.732;2023-03-17T04:07:37;4.97;;;3.50;;
8050;SDS011;4068;42.158;24.732;2023-03-17T04:10:04;5.17;;;3.43;;
8050;SDS011;4068;42.158;24.732;2023-03-17T04:12:30;4.37;;;3.83;;
8050;SDS011;4068;42.158;24.732;2023-03-17T04:14:55;5.13;;;4.43;;
8050;SDS011;4068;42.158;24.732;2023-03-17T04:17:21;4.93;;;3.60;;
8050;SDS011;4068;42.158;24.732;2023-03-17T04:19:46;4.07;;;3.43;;
8050;SDS011;4068;42.158;24.732;2023-03-17T04:22:11;5.90;;;3.70;;
8050;SDS011;4068;42.158;24.732;2023-03-17T04:24:37;3.87;;;3.33;;
8050;SDS011;4068;42.158;24.732;2023-03-17T04:27:03;4.47;;;3.53;;
8050;SDS011;4068;42.158;24.732;2023-03-17T04:29:28;4.00;;;3.63;;
8050;SDS011;4068;42.158;24.732;2023-03-17T04:31:54;3.80;;;3.50;;
8050;SDS011;4068;42.158;24.732;2023-03-17T04:34:20;3.43;;;3.13;;
8050;SDS011;4068;42.158;24.732;2023-03-17T04:36:47;8.03;;;3.70;;
8050;SDS011;4068;42.158;24.732;2023-03-17T04:39:13;4.00;;;3.50;;
8050;SDS011;4068;42.158;24.732;2023-03-17T04:41:39;5.27;;;4.07;;
8050;SDS011;4068;42.158;24.732;2023-03-17T04:44:05;3.97;;;3.50;;
8050;SDS011;4068;42.158;24.732;2023-03-17T04:46:31;4.20;;;3.70;;
8050;SDS011;4068;42.158;24.732;2023-03-17T04:48:58;3.73;;;3.43;;
8050;SDS011;4068;42.158;24.732;2023-03-17T04:51:23;4.47;;;4.07;;
8050;SDS011;4068;42.158;24.732;2023-03-17T04:53:49;4.87;;;4.20;;
8050;SDS011;4068;42.158;24.732;2023-03-17T04:56:15;4.17;;;3.70;;
8050;SDS011;4068;42.158;24.732;2023-03-17T04:58:41;4.10;;;3.70;;
8050;SDS011;4068;42.158;24.732;2023-03-17T05:01:06;4.80;;;4.20;;
8050;SDS011;4068;42.158;24.732;2023-03-17T05:03:32;6.43;;;3.97;;
8050;SDS011;4068;42.158;24.732;2023-03-17T05:05:59;5.40;;;4.00;;
8050;SDS011;4068;42.158;24.732;2023-03-17T05:08:25;4.80;;;4.07;;
8050;SDS011;4068;42.158;24.732;2023-03-17T05:10:52;4.70;;;3.97;;
8050;SDS011;4068;42.158;24.732;2023-03-17T05:13:19;4.07;;;3.63;;
8050;SDS011;4068;42.158;24.732;2023-03-17T05:15:48;7.80;;;4.10;;
8050;SDS011;4068;42.158;24.732;2023-03-17T05:18:15;4.87;;;4.37;;
8050;SDS011;4068;42.158;24.732;2023-03-17T05:20:42;9.67;;;4.90;;
8050;SDS011;4068;42.158;24.732;2023-03-17T05:23:08;7.73;;;4.67;;
8050;SDS011;4068;42.158;24.732;2023-03-17T05:25:33;5.23;;;4.57;;
8050;SDS011;4068;42.158;24.732;2023-03-17T05:27:59;6.47;;;4.27;;
8050;SDS011;4068;42.158;24.732;2023-03-17T05:30:25;7.27;;;4.90;;
8050;SDS011;4068;42.158;24.732;2023-03-17T05:32:51;8.90;;;5.70;;
8050;SDS011;4068;42.158;24.732;2023-03-17T05:35:17;6.35;;;5.13;;
8050;SDS011;4068;42.158;24.732;2023-03-17T05:37:43;10.23;;;5.87;;
8050;SDS011;4068;42.158;24.732;2023-03-17T05:40:09;8.80;;;7.30;;
8050;SDS011;4068;42.158;24.732;2023-03-17T05:42:36;7.37;;;5.37;;
8050;SDS011;4068;42.158;24.732;2023-03-17T05:45:03;7.03;;;4.83;;
8050;SDS011;4068;42.158;24.732;2023-03-17T05:47:29;7.80;;;5.15;;
8050;SDS011;4068;42.158;24.732;2023-03-17T05:49:56;13.03;;;6.27;;
8050;SDS011;4068;42.158;24.732;2023-03-17T05:52:21;10.83;;;5.67;;
8050;SDS011;4068;42.158;24.732;2023-03-17T05:54:46;9.43;;;6.15;;
8050;SDS011;4068;42.158;24.732;2023-03-17T05:57:13;6.90;;;5.30;;
8050;SDS011;4068;42.158;24.732;2023-03-17T05:59:39;5.93;;;5.07;;
8050;SDS011;4068;42.158;24.732;2023-03-17T06:02:05;6.57;;;4.28;;
8050;SDS011;4068;42.158;24.732;2023-03-17T06:04:30;5.47;;;4.40;;
8050;SDS011;4068;42.158;24.732;2023-03-17T06:06:56;5.40;;;4.40;;
8050;SDS011;4068;42.158;24.732;2023-03-17T06:09:22;5.07;;;4.15;;
8050;SDS011;4068;42.158;24.732;2023-03-17T06:11:48;5.97;;;4.78;;
8050;SDS011;4068;42.158;24.732;2023-03-17T06:14:13;5.28;;;4.78;;
8050;SDS011;4068;42.158;24.732;2023-03-17T06:16:39;5.82;;;4.78;;
8050;SDS011;4068;42.158;24.732;2023-03-17T06:19:05;4.82;;;4.32;;
8050;SDS011;4068;42.158;24.732;2023-03-17T06:21:30;5.03;;;4.45;;
8050;SDS011;4068;42.158;24.732;2023-03-17T06:23:56;6.70;;;4.68;;
8050;SDS011;4068;42.158;24.732;2023-03-17T06:26:21;5.93;;;4.55;;
8050;SDS011;4068;42.158;24.732;2023-03-17T06:28:47;6.25;;;4.75;;
8050;SDS011;4068;42.158;24.732;2023-03-17T06:31:12;5.82;;;4.55;;
8050;SDS011;4068;42.158;24.732;2023-03-17T06:33:37;5.00;;;4.50;;
8050;SDS011;4068;42.158;24.732;2023-03-17T06:36:03;9.52;;;4.97;;
8050;SDS011;4068;42.158;24.732;2023-03-17T06:38:29;7.80;;;4.57;;
8050;SDS011;4068;42.158;24.732;2023-03-17T06:40:54;12.75;;;4.25;;
8050;SDS011;4068;42.158;24.732;2023-03-17T06:43:20;5.65;;;4.70;;
8050;SDS011;4068;42.158;24.732;2023-03-17T06:45:46;4.93;;;4.43;;
8050;SDS011;4068;42.158;24.732;2023-03-17T06:48:11;8.32;;;4.70;;
8050;SDS011;4068;42.158;24.732;2023-03-17T06:50:37;6.63;;;4.65;;
8050;SDS011;4068;42.158;24.732;2023-03-17T06:53:03;6.05;;;4.60;;
8050;SDS011;4068;42.158;24.732;2023-03-17T06:55:28;10.30;;;4.90;;
8050;SDS011;4068;42.158;24.732;2023-03-17T06:57:54;8.73;;;4.80;;
8050;SDS011;4068;42.158;24.732;2023-03-17T07:03:11;5.47;;;4.60;;
8050;SDS011;4068;42.158;24.732;2023-03-17T07:05:36;7.13;;;4.53;;
8050;SDS011;4068;42.158;24.732;2023-03-17T07:08:03;7.57;;;5.43;;
8050;SDS011;4068;42.158;24.732;2023-03-17T07:10:30;6.57;;;5.00;;
8050;SDS011;4068;42.158;24.732;2023-03-17T07:12:56;23.05;;;5.43;;
8050;SDS011;4068;42.158;24.732;2023-03-17T07:15:22;9.25;;;5.35;;
8050;SDS011;4068;42.158;24.732;2023-03-17T07:17:48;11.05;;;5.45;;
8050;SDS011;4068;42.158;24.732;2023-03-17T07:20:13;11.52;;;5.13;;
8050;SDS011;4068;42.158;24.732;2023-03-17T07:22:39;9.60;;;5.53;;
8050;SDS011;4068;42.158;24.732;2023-03-17T07:25:05;11.73;;;4.60;;
8050;SDS011;4068;42.158;24.732;2023-03-17T07:27:32;6.63;;;4.90;;
8050;SDS011;4068;42.158;24.732;2023-03-17T07:29:58;6.78;;;5.35;;
8050;SDS011;4068;42.158;24.732;2023-03-17T07:32:26;6.47;;;4.18;;
8050;SDS011;4068;42.158;24.732;2023-03-17T07:34:52;4.80;;;3.80;;
8050;SDS011;4068;42.158;24.732;2023-03-17T07:37:17;8.77;;;4.10;;
8050;SDS011;4068;42.158;24.732;2023-03-17T07:39:43;6.28;;;4.28;;
8050;SDS011;4068;42.158;24.732;2023-03-17T07:42:11;5.43;;;3.92;;
8050;SDS011;4068;42.158;24.732;2023-03-17T07:44:39;5.20;;;4.28;;
8050;SDS011;4068;42.158;24.732;2023-03-17T07:47:05;6.45;;;4.57;;
8050;SDS011;4068;42.158;24.732;2023-03-17T07:49:32;5.40;;;4.28;;
8050;SDS011;4068;42.158;24.732;2023-03-17T07:51:57;5.85;;;4.25;;
8050;SDS011;4068;42.158;24.732;2023-03-17T07:54:22;7.38;;;4.43;;
8050;SDS011;4068;42.158;24.732;2023-03-17T07:56:51;8.15;;;5.53;;
8050;SDS011;4068;42.158;24.732;2023-03-17T07:59:17;7.28;;;5.15;;
8050;SDS011;4068;42.158;24.732;2023-03-17T08:01:42;7.32;;;5.60;;
8050;SDS011;4068;42.158;24.732;2023-03-17T08:04:09;4.72;;;3.67;;
8050;SDS011;4068;42.158;24.732;2023-03-17T08:06:36;5.20;;;3.95;;
8050;SDS011;4068;42.158;24.732;2023-03-17T08:09:02;5.00;;;4.50;;
8050;SDS011;4068;42.158;24.732;2023-03-17T08:11:28;6.57;;;4.65;;
8050;SDS011;4068;42.158;24.732;2023-03-17T08:13:53;4.68;;;4.20;;
8050;SDS011;4068;42.158;24.732;2023-03-17T08:16:19;4.45;;;3.72;;
8050;SDS011;4068;42.158;24.732;2023-03-17T08:18:44;5.50;;;4.07;;
8050;SDS011;4068;42.158;24.732;2023-03-17T08:21:10;5.45;;;4.50;;
8050;SDS011;4068;42.158;24.732;2023-03-17T08:23:35;4.80;;;4.22;;
8050;SDS011;4068;42.158;24.732;2023-03-17T08:26:02;7.15;;;4.63;;
8050;SDS011;4068;42.158;24.732;2023-03-17T08:28:28;4.40;;;4.00;;
8050;SDS011;4068;42.158;24.732;2023-03-17T08:31:04;4.40;;;4.00;;
8050;SDS011;4068;42.158;24.732;2023-03-17T08:33:32;4.05;;;3.63;;
8050;SDS011;4068;42.158;24.732;2023-03-17T08:35:58;3.83;;;3.42;;
8050;SDS011;4068;42.158;24.732;2023-03-17T08:38:24;4.30;;;3.90;;
8050;SDS011;4068;42.158;24.732;2023-03-17T08:40:49;6.05;;;4.22;;
8050;SDS011;4068;42.158;24.732;2023-03-17T08:43:15;11.70;;;6.78;;
8050;SDS011;4068;42.158;24.732;2023-03-17T08:45:41;4.63;;;4.22;;
8050;SDS011;4068;42.158;24.732;2023-03-17T08:48:07;10.68;;;5.03;;
8050;SDS011;4068;42.158;24.732;2023-03-17T08:50:33;4.30;;;3.90;;
8050;SDS011;4068;42.158;24.732;2023-03-17T08:52:59;8.75;;;4.30;;
8050;SDS011;4068;42.158;24.732;2023-03-17T08:55:25;3.95;;;3.55;;
8050;SDS011;4068;42.158;24.732;2023-03-17T08:57:51;4.93;;;3.53;;
8050;SDS011;4068;42.158;24.732;2023-03-17T09:00:17;3.95;;;3.50;;
8050;SDS011;4068;42.158;24.732;2023-03-17T09:02:44;5.20;;;3.95;;
8050;SDS011;4068;42.158;24.732;2023-03-17T09:05:10;4.43;;;3.83;;
8050;SDS011;4068;42.158;24.732;2023-03-17T09:07:37;4.25;;;3.85;;
8050;SDS011;4068;42.158;24.732;2023-03-17T09:10:04;5.22;;;3.60;;
8050;SDS011;4068;42.158;24.732;2023-03-17T09:12:31;4.70;;;3.88;;
8050;SDS011;4068;42.158;24.732;2023-03-17T09:14:56;9.25;;;4.20;;
8050;SDS011;4068;42.158;24.732;2023-03-17T09:17:22;4.13;;;3.75;;
8050;SDS011;4068;42.158;24.732;2023-03-17T09:19:48;4.13;;;3.72;;
8050;SDS011;4068;42.158;24.732;2023-03-17T09:22:14;4.50;;;3.75;;
8050;SDS011;4068;42.158;24.732;2023-03-17T09:24:41;7.20;;;3.92;;
8050;SDS011;4068;42.158;24.732;2023-03-17T09:27:07;7.70;;;4.57;;
8050;SDS011;4068;42.158;24.732;2023-03-17T09:29:33;5.65;;;4.40;;
8050;SDS011;4068;42.158;24.732;2023-03-17T09:31:58;10.60;;;4.70;;
8050;SDS011;4068;42.158;24.732;2023-03-17T09:34:25;5.25;;;4.13;;
8050;SDS011;4068;42.158;24.732;2023-03-17T09:36:54;5.47;;;4.38;;
8050;SDS011;4068;42.158;24.732;2023-03-17T09:39:20;7.28;;;4.63;;
8050;SDS011;4068;42.158;24.732;2023-03-17T09:47:04;10.00;;;3.90;;
8050;SDS011;4068;42.158;24.732;2023-03-17T09:52:13;3.10;;;2.90;;
8050;SDS011;4068;42.158;24.732;2023-03-17T09:54:41;4.05;;;3.08;;
8050;SDS011;4068;42.158;24.732;2023-03-17T09:57:27;3.30;;;3.00;;
8050;SDS011;4068;42.158;24.732;2023-03-17T09:59:59;3.13;;;2.80;;
8050;SDS011;4068;42.158;24.732;2023-03-17T10:02:31;4.60;;;2.47;;
8050;SDS011;4068;42.158;24.732;2023-03-17T10:05:05;3.30;;;3.00;;
8050;SDS011;4068;42.158;24.732;2023-03-17T10:07:41;3.20;;;3.00;;
8050;SDS011;4068;42.158;24.732;2023-03-17T10:10:36;3.50;;;3.20;;
8050;SDS011;4068;42.158;24.732;2023-03-17T10:16:14;3.60;;;3.28;;
8050;SDS011;4068;42.158;24.732;2023-03-17T10:18:50;3.83;;;3.17;;
8050;SDS011;4068;42.158;24.732;2023-03-17T10:21:45;4.63;;;3.75;;
8050;SDS011;4068;42.158;24.732;2023-03-17T10:24:12;3.80;;;3.10;;
8050;SDS011;4068;42.158;24.732;2023-03-17T10:26:39;6.32;;;3.67;;
8050;SDS011;4068;42.158;24.732;2023-03-17T10:29:10;4.10;;;3.70;;
8050;SDS011;4068;42.158;24.732;2023-03-17T10:31:39;4.65;;;3.60;;
8050;SDS011;4068;42.158;24.732;2023-03-17T10:34:21;7.65;;;4.22;;
8050;SDS011;4068;42.158;24.732;2023-03-17T10:37:33;6.10;;;4.28;;
8050;SDS011;4068;42.158;24.732;2023-03-17T10:39:46;3.97;;;3.65;;
8050;SDS011;4068;42.158;24.732;2023-03-17T10:44:54;4.65;;;3.35;;
8050;SDS011;4068;42.158;24.732;2023-03-17T10:47:36;3.90;;;3.60;;
8050;SDS011;4068;42.158;24.732;2023-03-17T10:50:25;3.08;;;2.88;;
8050;SDS011;4068;42.158;24.732;2023-03-17T10:53:08;3.40;;;3.10;;
8050;SDS011;4068;42.158;24.732;2023-03-17T10:55:48;3.83;;;3.30;;
8050;SDS011;4068;42.158;24.732;2023-03-17T10:58:24;3.42;;;3.13;;
8050;SDS011;4068;42.158;24.732;2023-03-17T11:01:02;3.60;;;3.20;;
8050;SDS011;4068;42.158;24.732;2023-03-17T11:03:31;3.50;;;3.20;;
8050;SDS011;4068;42.158;24.732;2023-03-17T11:08:31;3.45;;;3.00;;
8050;SDS011;4068;42.158;24.732;2023-03-17T11:11:03;3.45;;;2.90;;
8050;SDS011;4068;42.158;24.732;2023-03-17T11:13:30;3.83;;;3.25;;
8050;SDS011;4068;42.158;24.732;2023-03-17T11:16:00;3.88;;;3.42;;
8050;SDS011;4068;42.158;24.732;2023-03-17T11:18:46;4.00;;;3.10;;
8050;SDS011;4068;42.158;24.732;2023-03-17T11:21:29;4.10;;;3.67;;
8050;SDS011;4068;42.158;24.732;2023-03-17T11:27:18;5.97;;;3.65;;
8050;SDS011;4068;42.158;24.732;2023-03-17T11:32:40;3.90;;;3.50;;
8050;SDS011;4068;42.158;24.732;2023-03-17T11:46:13;4.65;;;3.15;;
8050;SDS011;4068;42.158;24.732;2023-03-17T11:56:46;6.82;;;4.53;;
8050;SDS011;4068;42.158;24.732;2023-03-17T11:59:16;5.43;;;4.25;;
8050;SDS011;4068;42.158;24.732;2023-03-17T12:01:47;6.03;;;4.90;;
8050;SDS011;4068;42.158;24.732;2023-03-17T12:04:36;7.10;;;4.20;;
8050;SDS011;4068;42.158;24.732;2023-03-17T12:09:43;3.78;;;3.40;;
8050;SDS011;4068;42.158;24.732;2023-03-17T12:12:15;9.30;;;3.85;;
8050;SDS011;4068;42.158;24.732;2023-03-17T12:14:48;8.27;;;3.53;;
8050;SDS011;4068;42.158;24.732;2023-03-17T12:17:20;3.67;;;3.35;;
8050;SDS011;4068;42.158;24.732;2023-03-17T12:20:01;3.70;;;3.40;;
8050;SDS011;4068;42.158;24.732;2023-03-17T12:25:22;4.63;;;3.92;;
8050;SDS011;4068;42.158;24.732;2023-03-17T12:28:03;4.25;;;3.50;;
8050;SDS011;4068;42.158;24.732;2023-03-17T12:33:35;3.85;;;3.33;;
8050;SDS011;4068;42.158;24.732;2023-03-17T12:36:12;3.85;;;3.55;;
8050;SDS011;4068;42.158;24.732;2023-03-17T12:38:41;4.03;;;3.50;;
8050;SDS011;4068;42.158;24.732;2023-03-17T12:54:45;6.00;;;3.97;;
8050;SDS011;4068;42.158;24.732;2023-03-17T12:57:26;6.53;;;4.15;;
8050;SDS011;4068;42.158;24.732;2023-03-17T13:00:06;5.80;;;3.70;;
8050;SDS011;4068;42.158;24.732;2023-03-17T13:03:05;5.07;;;4.30;;
8050;SDS011;4068;42.158;24.732;2023-03-17T13:05:37;4.90;;;3.70;;
8050;SDS011;4068;42.158;24.732;2023-03-17T13:08:03;6.93;;;3.58;;
8050;SDS011;4068;42.158;24.732;2023-03-17T13:19:38;5.15;;;4.30;;
8050;SDS011;4068;42.158;24.732;2023-03-17T13:24:46;7.97;;;4.78;;
8050;SDS011;4068;42.158;24.732;2023-03-17T13:29:57;6.18;;;4.70;;
8050;SDS011;4068;42.158;24.732;2023-03-17T13:32:43;3.85;;;3.50;;
8050;SDS011;4068;42.158;24.732;2023-03-17T13:35:18;3.92;;;3.60;;
8050;SDS011;4068;42.158;24.732;2023-03-17T13:43:21;6.80;;;4.18;;
8050;SDS011;4068;42.158;24.732;2023-03-17T13:45:54;6.85;;;5.22;;
8050;SDS011;4068;42.158;24.732;2023-03-17T13:48:46;8.90;;;5.85;;
8050;SDS011;4068;42.158;24.732;2023-03-17T13:51:25;5.03;;;4.05;;
8050;SDS011;4068;42.158;24.732;2023-03-17T13:53:57;4.32;;;3.92;;
8050;SDS011;4068;42.158;24.732;2023-03-17T14:01:34;9.13;;;4.30;;
8050;SDS011;4068;42.158;24.732;2023-03-17T14:04:19;4.60;;;4.10;;
8050;SDS011;4068;42.158;24.732;2023-03-17T14:06:55;5.43;;;3.90;;
8050;SDS011;4068;42.158;24.732;2023-03-17T14:09:26;6.75;;;4.00;;
8050;SDS011;4068;42.158;24.732;2023-03-17T14:12:17;5.97;;;4.47;;
8050;SDS011;4068;42.158;24.732;2023-03-17T14:14:48;4.78;;;4.10;;
8050;SDS011;4068;42.158;24.732;2023-03-17T14:17:22;9.43;;;4.75;;
8050;SDS011;4068;42.158;24.732;2023-03-17T14:20:01;5.65;;;3.92;;
8050;SDS011;4068;42.158;24.732;2023-03-17T14:22:37;7.55;;;4.07;;
8050;SDS011;4068;42.158;24.732;2023-03-17T14:25:15;5.78;;;4.32;;
8050;SDS011;4068;42.158;24.732;2023-03-17T14:27:43;7.35;;;4.40;;
8050;SDS011;4068;42.158;24.732;2023-03-17T14:30:20;5.53;;;4.60;;
8050;SDS011;4068;42.158;24.732;2023-03-17T14:32:55;6.90;;;4.20;;
8050;SDS011;4068;42.158;24.732;2023-03-17T14:35:27;7.97;;;5.10;;
8050;SDS011;4068;42.158;24.732;2023-03-17T14:37:58;5.68;;;4.55;;
8050;SDS011;4068;42.158;24.732;2023-03-17T14:40:25;9.98;;;4.13;;
8050;SDS011;4068;42.158;24.732;2023-03-17T14:42:54;5.22;;;4.47;;
8050;SDS011;4068;42.158;24.732;2023-03-17T14:45:37;7.53;;;4.40;;
8050;SDS011;4068;42.158;24.732;2023-03-17T14:48:11;11.15;;;4.20;;
8050;SDS011;4068;42.158;24.732;2023-03-17T14:50:46;4.43;;;3.92;;
8050;SDS011;4068;42.158;24.732;2023-03-17T14:53:18;7.32;;;4.90;;
8050;SDS011;4068;42.158;24.732;2023-03-17T14:55:44;9.18;;;4.95;;
8050;SDS011;4068;42.158;24.732;2023-03-17T14:58:21;8.93;;;4.97;;
8050;SDS011;4068;42.158;24.732;2023-03-17T15:01:00;5.78;;;4.30;;
8050;SDS011;4068;42.158;24.732;2023-03-17T15:03:27;9.05;;;5.32;;
8050;SDS011;4068;42.158;24.732;2023-03-17T15:06:28;6.38;;;4.93;;
8050;SDS011;4068;42.158;24.732;2023-03-17T15:08:51;13.13;;;5.03;;
8050;SDS011;4068;42.158;24.732;2023-03-17T15:11:33;10.90;;;5.53;;
8050;SDS011;4068;42.158;24.732;2023-03-17T15:14:03;7.82;;;5.55;;
8050;SDS011;4068;42.158;24.732;2023-03-17T15:16:37;10.50;;;5.53;;
8050;SDS011;4068;42.158;24.732;2023-03-17T15:19:06;8.93;;;5.80;;
8050;SDS011;4068;42.158;24.732;2023-03-17T15:21:41;9.88;;;5.03;;
8050;SDS011;4068;42.158;24.732;2023-03-17T15:27:21;5.00;;;4.43;;
8050;SDS011;4068;42.158;24.732;2023-03-17T15:29:47;6.13;;;4.25;;
8050;SDS011;4068;42.158;24.732;2023-03-17T15:32:13;11.20;;;4.55;;
8050;SDS011;4068;42.158;24.732;2023-03-17T15:34:43;6.70;;;3.95;;
8050;SDS011;4068;42.158;24.732;2023-03-17T15:37:16;7.72;;;4.35;;
8050;SDS011;4068;42.158;24.732;2023-03-17T15:39:43;5.03;;;4.43;;
8050;SDS011;4068;42.158;24.732;2023-03-17T15:42:10;6.30;;;4.10;;
8050;SDS011;4068;42.158;24.732;2023-03-17T15:44:35;5.00;;;4.50;;
8050;SDS011;4068;42.158;24.732;2023-03-17T15:47:01;10.52;;;6.28;;
8050;SDS011;4068;42.158;24.732;2023-03-17T15:49:27;6.18;;;4.63;;
8050;SDS011;4068;42.158;24.732;2023-03-17T15:51:53;12.57;;;4.43;;
8050;SDS011;4068;42.158;24.732;2023-03-17T15:54:19;6.97;;;4.65;;
8050;SDS011;4068;42.158;24.732;2023-03-17T15:56:44;6.38;;;4.88;;
8050;SDS011;4068;42.158;24.732;2023-03-17T15:59:10;6.47;;;4.38;;
8050;SDS011;4068;42.158;24.732;2023-03-17T16:01:36;7.40;;;4.70;;
8050;SDS011;4068;42.158;24.732;2023-03-17T16:04:06;5.63;;;4.80;;
8050;SDS011;4068;42.158;24.732;2023-03-17T16:06:33;12.68;;;5.30;;
8050;SDS011;4068;42.158;24.732;2023-03-17T16:08:59;10.82;;;4.95;;
8050;SDS011;4068;42.158;24.732;2023-03-17T16:11:25;6.60;;;4.93;;
8050;SDS011;4068;42.158;24.732;2023-03-17T16:13:55;15.40;;;4.93;;
8050;SDS011;4068;42.158;24.732;2023-03-17T16:16:34;6.38;;;4.85;;
8050;SDS011;4068;42.158;24.732;2023-03-17T16:19:01;9.90;;;5.30;;
8050;SDS011;4068;42.158;24.732;2023-03-17T16:21:33;7.55;;;4.97;;
8050;SDS011;4068;42.158;24.732;2023-03-17T16:23:58;8.57;;;5.55;;
8050;SDS011;4068;42.158;24.732;2023-03-17T16:26:24;9.10;;;5.43;;
8050;SDS011;4068;42.158;24.732;2023-03-17T16:28:49;7.43;;;5.20;;
8050;SDS011;4068;42.158;24.732;2023-03-17T16:31:16;7.18;;;5.00;;
8050;SDS011;4068;42.158;24.732;2023-03-17T16:33:49;7.28;;;4.68;;
8050;SDS011;4068;42.158;24.732;2023-03-17T16:36:17;9.38;;;5.53;;
8050;SDS011;4068;42.158;24.732;2023-03-17T16:38:44;6.72;;;5.40;;
8050;SDS011;4068;42.158;24.732;2023-03-17T16:41:15;7.68;;;5.05;;
8050;SDS011;4068;42.158;24.732;2023-03-17T16:43:42;8.05;;;5.40;;
8050;SDS011;4068;42.158;24.732;2023-03-17T16:46:09;8.23;;;5.82;;
8050;SDS011;4068;42.158;24.732;2023-03-17T16:48:35;6.63;;;4.95;;
8050;SDS011;4068;42.158;24.732;2023-03-17T16:51:01;8.55;;;5.38;;
8050;SDS011;4068;42.158;24.732;2023-03-17T16:53:28;6.68;;;5.43;;
8050;SDS011;4068;42.158;24.732;2023-03-17T16:55:54;6.85;;;5.00;;